createdAt,value
2023-03-06T00:00:44.144Z,48.67
2023-03-06T00:01:44.115Z,48.67
2023-03-06T00:02:44.148Z,48.63
2023-03-06T00:03:44.174Z,48.48
2023-03-06T00:04:44.200Z,48.34
2023-03-06T00:06:44.113Z,48.01
2023-03-06T00:07:44.120Z,47.94
2023-03-06T00:08:44.113Z,47.80
2023-03-06T00:09:44.121Z,47.75
2023-03-06T00:10:44.131Z,47.64
2023-03-06T00:12:44.173Z,47.67
2023-03-06T00:13:44.137Z,47.64
2023-03-06T00:15:44.193Z,47.51
2023-03-06T00:18:44.158Z,47.79
2023-03-06T00:19:44.197Z,47.62
2023-03-06T00:20:44.170Z,47.53
2023-03-06T00:21:44.206Z,47.74
2023-03-06T00:22:44.241Z,47.97
2023-03-06T00:23:44.201Z,47.97
2023-03-06T00:24:44.178Z,47.65
2023-03-06T00:25:44.383Z,47.34
2023-03-06T00:26:44.173Z,47.34
2023-03-06T00:27:44.163Z,47.29
2023-03-06T00:28:44.209Z,47.21
2023-03-06T00:29:44.212Z,47.04
2023-03-06T00:30:44.265Z,46.70
2023-03-06T00:31:46.861Z,46.68
2023-03-06T00:32:44.211Z,46.68
2023-03-06T00:33:44.236Z,46.72
2023-03-06T00:34:44.228Z,46.78
2023-03-06T00:35:44.213Z,46.85
2023-03-06T00:36:44.233Z,46.83
2023-03-06T00:37:44.233Z,46.73
2023-03-06T00:38:44.193Z,46.78
2023-03-06T00:39:44.206Z,46.72
2023-03-06T00:40:44.218Z,46.73
2023-03-06T00:41:46.861Z,46.72
2023-03-06T00:42:44.253Z,46.76
2023-03-06T00:43:44.247Z,47.02
2023-03-06T00:44:44.239Z,47.02
2023-03-06T00:45:44.288Z,46.90
2023-03-06T00:47:44.260Z,46.96
2023-03-06T00:48:44.247Z,47.19
2023-03-06T00:49:44.267Z,47.39
2023-03-06T00:51:44.309Z,47.39
2023-03-06T00:52:44.267Z,47.52
2023-03-06T00:53:44.267Z,47.69
2023-03-06T00:54:44.268Z,47.53
2023-03-06T00:55:44.277Z,47.35
2023-03-06T00:56:44.274Z,47.28
2023-03-06T00:57:44.243Z,47.38
2023-03-06T00:58:44.295Z,47.44
2023-03-06T00:59:44.279Z,47.50
2023-03-06T01:01:44.287Z,47.52
2023-03-06T01:02:44.265Z,47.50
2023-03-06T01:04:44.295Z,47.48
2023-03-06T01:05:44.315Z,47.53
2023-03-06T01:06:44.361Z,47.48
2023-03-06T01:07:44.304Z,47.47
2023-03-06T01:10:44.263Z,47.17
2023-03-06T01:11:44.302Z,47.03
2023-03-06T01:13:44.283Z,47.33
2023-03-06T01:14:44.276Z,47.25
2023-03-06T01:15:44.306Z,47.36
2023-03-06T01:16:44.379Z,47.49
2023-03-06T01:17:44.280Z,47.63
2023-03-06T01:18:44.321Z,47.52
2023-03-06T01:19:44.379Z,47.63
2023-03-06T01:20:44.302Z,47.64
2023-03-06T01:21:44.294Z,47.70
2023-03-06T01:22:44.303Z,47.82
2023-03-06T01:23:44.303Z,47.68
2023-03-06T01:24:44.344Z,46.91
2023-03-06T01:25:44.320Z,46.69
2023-03-06T01:27:44.315Z,46.54
2023-03-06T01:28:44.358Z,46.53
2023-03-06T01:29:44.298Z,46.40
2023-03-06T01:30:44.348Z,46.42
2023-03-06T01:32:44.400Z,46.58
2023-03-06T01:33:44.362Z,46.58
2023-03-06T01:34:44.321Z,46.72
2023-03-06T01:35:44.390Z,46.74
2023-03-06T01:36:44.357Z,46.64
2023-03-06T01:39:44.386Z,46.48
2023-03-06T01:41:44.356Z,46.41
2023-03-06T01:42:46.411Z,46.48
2023-03-06T01:43:44.380Z,46.46
2023-03-06T01:44:44.389Z,46.53
2023-03-06T01:45:47.389Z,46.37
2023-03-06T01:47:44.348Z,46.33
2023-03-06T01:48:44.368Z,46.28
2023-03-06T01:49:44.364Z,46.67
2023-03-06T01:50:44.397Z,46.88
2023-03-06T01:51:44.401Z,46.88
2023-03-06T01:52:44.416Z,47.12
2023-03-06T01:53:44.392Z,47.34
2023-03-06T01:54:44.419Z,47.34
2023-03-06T01:56:44.432Z,47.54
2023-03-06T01:58:44.424Z,47.56
2023-03-06T01:59:44.443Z,47.51
2023-03-06T02:00:44.593Z,47.52
2023-03-06T02:01:44.424Z,47.76
2023-03-06T02:02:44.442Z,47.98
2023-03-06T02:03:44.409Z,47.96
2023-03-06T02:04:44.441Z,47.93
2023-03-06T02:05:44.413Z,48.06
2023-03-06T02:06:44.408Z,48.16
2023-03-06T02:07:44.422Z,48.02
2023-03-06T02:08:44.408Z,48.02
2023-03-06T02:10:44.504Z,47.87
2023-03-06T02:11:44.532Z,48.08
2023-03-06T02:12:44.483Z,48.18
2023-03-06T02:13:44.426Z,48.09
2023-03-06T02:14:44.434Z,47.94
2023-03-06T02:15:44.466Z,48.08
2023-03-06T02:16:44.562Z,48.08
2023-03-06T02:18:44.432Z,48.54
2023-03-06T02:20:44.559Z,48.83
2023-03-06T02:21:44.493Z,48.83
2023-03-06T02:22:47.565Z,48.73
2023-03-06T02:23:44.477Z,48.73
2023-03-06T02:24:44.494Z,48.71
2023-03-06T02:25:44.451Z,48.90
2023-03-06T02:26:44.737Z,48.88
2023-03-06T02:27:44.541Z,48.97
2023-03-06T02:28:44.500Z,48.97
2023-03-06T02:29:44.462Z,49.17
2023-03-06T02:31:44.490Z,49.20
2023-03-06T02:32:44.471Z,49.25
2023-03-06T02:33:44.552Z,49.30
2023-03-06T02:34:44.557Z,49.38
2023-03-06T02:36:44.485Z,48.95
2023-03-06T02:37:44.490Z,49.04
2023-03-06T02:38:44.490Z,49.05
2023-03-06T02:40:44.530Z,49.10
2023-03-06T02:41:44.568Z,49.16
2023-03-06T02:42:44.500Z,49.16
2023-03-06T02:45:44.649Z,49.55
2023-03-06T02:47:44.562Z,49.44
2023-03-06T02:48:44.545Z,49.58
2023-03-06T02:49:44.538Z,49.60
2023-03-06T02:51:44.549Z,49.64
2023-03-06T02:53:44.506Z,49.57
2023-03-06T02:54:44.535Z,49.70
2023-03-06T02:55:44.565Z,49.75
2023-03-06T02:56:44.563Z,49.77
2023-03-06T02:58:44.580Z,49.92
2023-03-06T02:59:47.860Z,49.87
2023-03-06T03:01:44.580Z,49.82
2023-03-06T03:04:44.692Z,49.99
2023-03-06T03:05:44.585Z,50.11
2023-03-06T03:06:44.574Z,50.11
2023-03-06T03:07:44.581Z,50.25
2023-03-06T03:08:44.586Z,50.28
2023-03-06T03:10:44.618Z,50.34
2023-03-06T03:11:44.617Z,50.38
2023-03-06T03:12:44.607Z,50.41
2023-03-06T03:14:44.576Z,50.39
2023-03-06T03:15:44.623Z,50.50
2023-03-06T03:16:44.600Z,50.59
2023-03-06T03:17:44.616Z,51.01
2023-03-06T03:18:44.656Z,51.01
2023-03-06T03:19:44.613Z,51.14
2023-03-06T03:20:44.610Z,51.38
2023-03-06T03:21:44.606Z,51.59
2023-03-06T03:22:44.621Z,51.61
2023-03-06T03:23:44.602Z,51.71
2023-03-06T03:25:44.614Z,51.74
2023-03-06T03:26:44.602Z,51.64
2023-03-06T03:27:44.605Z,51.62
2023-03-06T03:28:44.628Z,51.62
2023-03-06T03:29:44.661Z,51.53
2023-03-06T03:30:44.686Z,51.49
2023-03-06T03:32:44.684Z,51.27
2023-03-06T03:33:44.651Z,51.58
2023-03-06T03:34:44.630Z,51.58
2023-03-06T03:35:44.689Z,51.60
2023-03-06T03:36:48.067Z,51.73
2023-03-06T03:37:44.648Z,51.73
2023-03-06T03:38:44.697Z,51.67
2023-03-06T03:39:44.695Z,51.70
2023-03-06T03:41:44.671Z,51.73
2023-03-06T03:42:44.663Z,51.68
2023-03-06T03:43:44.675Z,51.58
2023-03-06T03:44:44.633Z,51.49
2023-03-06T03:45:44.656Z,51.33
2023-03-06T03:47:44.654Z,51.58
2023-03-06T03:48:44.720Z,51.50
2023-03-06T03:49:44.684Z,51.57
2023-03-06T03:51:44.696Z,51.60
2023-03-06T03:52:44.697Z,51.58
2023-03-06T03:54:44.718Z,51.71
2023-03-06T03:55:44.716Z,51.67
2023-03-06T03:57:44.730Z,51.76
2023-03-06T03:58:44.675Z,51.69
2023-03-06T03:59:44.708Z,51.81
2023-03-06T04:01:44.796Z,51.70
2023-03-06T04:02:44.733Z,51.70
2023-03-06T04:03:44.718Z,51.72
2023-03-06T04:05:44.733Z,51.80
2023-03-06T04:06:44.764Z,51.79
2023-03-06T04:07:44.724Z,51.84
2023-03-06T04:08:44.725Z,51.80
2023-03-06T04:09:44.743Z,51.87
2023-03-06T04:10:44.744Z,51.93
2023-03-06T04:11:44.740Z,51.98
2023-03-06T04:12:44.745Z,51.97
2023-03-06T04:13:48.350Z,52.08
2023-03-06T04:14:44.753Z,52.21
2023-03-06T04:15:44.727Z,52.21
2023-03-06T04:16:44.750Z,52.11
2023-03-06T04:17:44.732Z,52.11
2023-03-06T04:19:44.779Z,51.90
2023-03-06T04:21:44.723Z,51.90
2023-03-06T04:22:44.767Z,52.02
2023-03-06T04:24:44.798Z,52.06
2023-03-06T04:25:44.729Z,52.02
2023-03-06T04:27:44.774Z,52.06
2023-03-06T04:28:44.787Z,51.98
2023-03-06T04:29:44.788Z,52.01
2023-03-06T04:30:44.764Z,52.01
2023-03-06T04:31:44.822Z,52.01
2023-03-06T04:32:44.810Z,51.95
2023-03-06T04:33:44.789Z,51.90
2023-03-06T04:35:44.870Z,51.90
2023-03-06T04:37:44.783Z,51.94
2023-03-06T04:38:44.803Z,51.98
2023-03-06T04:41:44.825Z,52.00
2023-03-06T04:42:44.784Z,52.16
2023-03-06T04:43:44.832Z,52.24
2023-03-06T04:44:44.816Z,52.46
2023-03-06T04:45:44.865Z,52.46
2023-03-06T04:46:44.839Z,52.65
2023-03-06T04:47:44.821Z,52.81
2023-03-06T04:48:44.824Z,53.10
2023-03-06T04:49:44.841Z,53.12
2023-03-06T04:50:48.601Z,53.21
2023-03-06T04:51:44.830Z,53.21
2023-03-06T04:52:44.842Z,53.23
2023-03-06T04:53:44.854Z,52.70
2023-03-06T04:54:44.829Z,52.30
2023-03-06T04:55:44.828Z,52.30
2023-03-06T04:56:44.799Z,52.19
2023-03-06T04:58:44.831Z,52.15
2023-03-06T04:59:44.840Z,52.08
2023-03-06T05:01:44.832Z,51.67
2023-03-06T05:03:44.864Z,51.80
2023-03-06T05:04:44.818Z,51.76
2023-03-06T05:05:44.829Z,51.57
2023-03-06T05:06:45.028Z,51.60
2023-03-06T05:07:44.871Z,51.75
2023-03-06T05:08:44.831Z,51.84
2023-03-06T05:09:44.844Z,51.72
2023-03-06T05:10:44.880Z,51.56
2023-03-06T05:11:44.849Z,51.79
2023-03-06T05:12:44.857Z,51.88
2023-03-06T05:13:44.840Z,51.88
2023-03-06T05:14:47.679Z,51.95
2023-03-06T05:15:44.836Z,51.95
2023-03-06T05:16:44.945Z,52.00
2023-03-06T05:17:44.893Z,51.97
2023-03-06T05:18:44.906Z,51.96
2023-03-06T05:19:44.896Z,51.98
2023-03-06T05:20:44.902Z,51.92
2023-03-06T05:21:44.858Z,51.90
2023-03-06T05:22:44.933Z,51.73
2023-03-06T05:23:44.868Z,51.73
2023-03-06T05:24:44.913Z,51.70
2023-03-06T05:25:44.916Z,51.63
2023-03-06T05:26:44.869Z,51.57
2023-03-06T05:27:48.868Z,51.48
2023-03-06T05:28:44.922Z,51.48
2023-03-06T05:29:44.915Z,51.38
2023-03-06T05:30:44.917Z,51.31
2023-03-06T05:31:44.921Z,51.30
2023-03-06T05:32:44.894Z,51.30
2023-03-06T05:33:44.897Z,51.25
2023-03-06T05:34:44.936Z,51.31
2023-03-06T05:36:44.938Z,51.26
2023-03-06T05:37:44.957Z,51.30
2023-03-06T05:38:44.956Z,51.30
2023-03-06T05:39:44.938Z,51.33
2023-03-06T05:40:44.955Z,51.40
2023-03-06T05:42:44.975Z,51.41
2023-03-06T05:43:45.008Z,51.33
2023-03-06T05:44:44.967Z,51.27
2023-03-06T05:45:44.971Z,51.38
2023-03-06T05:46:44.966Z,51.38
2023-03-06T05:47:44.955Z,51.56
2023-03-06T05:48:46.753Z,51.59
2023-03-06T05:50:44.976Z,51.52
2023-03-06T05:51:44.982Z,51.58
2023-03-06T05:52:44.988Z,51.51
2023-03-06T05:53:44.977Z,51.34
2023-03-06T05:55:44.942Z,51.27
2023-03-06T05:56:44.983Z,51.18
2023-03-06T05:57:45.013Z,51.05
2023-03-06T05:58:44.972Z,51.00
2023-03-06T05:59:46.417Z,50.90
2023-03-06T06:00:44.968Z,50.95
2023-03-06T06:01:44.988Z,50.98
2023-03-06T06:02:45.037Z,50.98
2023-03-06T06:03:45.092Z,50.96
2023-03-06T06:04:49.293Z,50.89
2023-03-06T06:05:44.992Z,50.89
2023-03-06T06:06:45.015Z,50.95
2023-03-06T06:08:45.015Z,50.94
2023-03-06T06:10:44.986Z,50.82
2023-03-06T06:11:45.023Z,50.75
2023-03-06T06:14:45.036Z,50.80
2023-03-06T06:15:45.081Z,50.73
2023-03-06T06:16:45.022Z,50.73
2023-03-06T06:17:45.031Z,50.78
2023-03-06T06:18:45.030Z,50.76
2023-03-06T06:22:45.016Z,50.85
2023-03-06T06:23:45.018Z,50.75
2023-03-06T06:24:45.044Z,50.73
2023-03-06T06:26:45.117Z,50.80
2023-03-06T06:28:45.064Z,50.54
2023-03-06T06:29:45.027Z,50.50
2023-03-06T06:30:45.261Z,50.38
2023-03-06T06:31:45.120Z,50.38
2023-03-06T06:32:45.076Z,50.37
2023-03-06T06:33:45.067Z,50.16
2023-03-06T06:34:45.084Z,49.97
2023-03-06T06:35:45.143Z,50.21
2023-03-06T06:36:45.101Z,50.37
2023-03-06T06:37:45.105Z,50.37
2023-03-06T06:39:45.039Z,50.35
2023-03-06T06:40:54.049Z,50.28
2023-03-06T06:42:00.057Z,50.26
2023-03-06T06:42:45.090Z,50.19
2023-03-06T06:43:45.092Z,50.19
2023-03-06T06:44:45.108Z,49.96
2023-03-06T06:45:45.061Z,49.99
2023-03-06T06:47:45.226Z,49.95
2023-03-06T06:48:45.082Z,50.00
2023-03-06T06:49:45.079Z,49.87
2023-03-06T06:50:45.081Z,49.73
2023-03-06T06:51:45.124Z,49.41
2023-03-06T06:52:45.115Z,49.41
2023-03-06T06:53:45.161Z,49.20
2023-03-06T06:54:45.097Z,49.33
2023-03-06T06:55:45.124Z,49.33
2023-03-06T06:56:45.144Z,49.28
2023-03-06T06:57:45.162Z,49.28
2023-03-06T06:58:45.084Z,48.83
2023-03-06T06:59:45.124Z,48.94
2023-03-06T07:00:45.134Z,49.18
2023-03-06T07:01:45.214Z,49.65
2023-03-06T07:02:45.119Z,49.84
2023-03-06T07:03:45.129Z,49.84
2023-03-06T07:05:02.100Z,49.93
2023-03-06T07:05:45.957Z,49.86
2023-03-06T07:06:45.116Z,49.84
2023-03-06T07:07:45.106Z,49.60
2023-03-06T07:08:45.165Z,49.13
2023-03-06T07:09:45.168Z,49.13
2023-03-06T07:11:46.006Z,48.96
2023-03-06T07:12:45.168Z,48.96
2023-03-06T07:14:45.215Z,48.63
2023-03-06T07:15:45.170Z,48.74
2023-03-06T07:17:45.406Z,48.61
2023-03-06T07:18:49.893Z,48.41
2023-03-06T07:19:45.192Z,48.41
2023-03-06T07:20:45.157Z,48.38
2023-03-06T07:21:45.154Z,48.53
2023-03-06T07:22:51.320Z,48.26
2023-03-06T07:23:45.236Z,48.29
2023-03-06T07:24:45.229Z,48.45
2023-03-06T07:25:45.201Z,48.57
2023-03-06T07:26:45.205Z,49.00
2023-03-06T07:27:51.048Z,49.25
2023-03-06T07:28:52.348Z,49.42
2023-03-06T07:29:45.204Z,49.55
2023-03-06T07:30:45.216Z,49.81
2023-03-06T07:31:45.242Z,49.81
2023-03-06T07:32:45.216Z,49.96
2023-03-06T07:33:45.235Z,49.96
2023-03-06T07:34:45.223Z,49.92
2023-03-06T07:35:45.386Z,50.18
2023-03-06T07:36:45.226Z,50.18
2023-03-06T07:37:45.243Z,50.26
2023-03-06T07:38:45.218Z,50.16
2023-03-06T07:39:45.178Z,50.04
2023-03-06T07:40:45.279Z,50.11
2023-03-06T07:41:45.238Z,50.19
2023-03-06T07:42:45.230Z,50.17
2023-03-06T07:43:45.237Z,50.26
2023-03-06T07:44:45.253Z,50.40
2023-03-06T07:45:45.254Z,50.40
2023-03-06T07:46:45.283Z,50.48
2023-03-06T07:47:45.273Z,50.66
2023-03-06T07:48:45.233Z,50.60
2023-03-06T07:49:45.233Z,50.43
2023-03-06T07:50:45.266Z,50.15
2023-03-06T07:51:45.274Z,50.15
2023-03-06T07:52:45.274Z,50.45
2023-03-06T07:53:45.274Z,50.34
2023-03-06T07:54:45.271Z,50.19
2023-03-06T07:55:50.188Z,49.95
2023-03-06T07:56:45.234Z,49.95
2023-03-06T07:57:45.294Z,49.49
2023-03-06T07:58:45.320Z,49.49
2023-03-06T07:59:45.262Z,49.30
2023-03-06T08:00:45.292Z,49.48
2023-03-06T08:01:45.265Z,49.47
2023-03-06T08:02:45.320Z,49.50
2023-03-06T08:03:45.356Z,49.26
2023-03-06T08:04:45.313Z,48.96
2023-03-06T08:05:45.355Z,48.95
2023-03-06T08:06:45.270Z,48.64
2023-03-06T08:07:45.288Z,48.64
2023-03-06T08:08:45.313Z,48.44
2023-03-06T08:09:45.467Z,48.12
2023-03-06T08:10:45.313Z,48.06
2023-03-06T08:11:45.343Z,47.78
2023-03-06T08:12:45.280Z,47.76
2023-03-06T08:13:45.326Z,47.72
2023-03-06T08:14:45.323Z,47.71
2023-03-06T08:15:45.310Z,47.51
2023-03-06T08:16:45.298Z,47.16
2023-03-06T08:17:45.279Z,47.10
2023-03-06T08:18:46.569Z,47.06
2023-03-06T08:19:45.341Z,46.91
2023-03-06T08:20:45.361Z,46.91
2023-03-06T08:21:45.370Z,46.60
2023-03-06T08:22:45.335Z,46.54
2023-03-06T08:23:45.339Z,46.56
2023-03-06T08:24:45.358Z,46.56
2023-03-06T08:25:45.361Z,46.70
2023-03-06T08:26:45.343Z,46.66
2023-03-06T08:27:45.320Z,46.55
2023-03-06T08:28:45.372Z,46.62
2023-03-06T08:29:45.415Z,46.54
2023-03-06T08:30:45.360Z,46.54
2023-03-06T08:31:45.445Z,46.43
2023-03-06T08:32:50.387Z,46.43
2023-03-06T08:34:46.113Z,46.23
2023-03-06T08:35:45.379Z,46.18
2023-03-06T08:37:45.882Z,46.28
2023-03-06T08:38:45.394Z,46.01
2023-03-06T08:39:45.355Z,46.10
2023-03-06T08:41:45.409Z,45.95
2023-03-06T08:42:45.430Z,46.06
2023-03-06T08:43:45.437Z,46.14
2023-03-06T08:44:45.382Z,45.94
2023-03-06T08:45:45.426Z,45.85
2023-03-06T08:47:45.395Z,45.78
2023-03-06T08:48:45.365Z,45.64
2023-03-06T08:49:45.804Z,45.64
2023-03-06T08:50:45.396Z,45.47
2023-03-06T08:51:45.356Z,45.55
2023-03-06T08:52:45.369Z,45.43
2023-03-06T08:55:45.496Z,45.57
2023-03-06T08:56:45.385Z,45.57
2023-03-06T08:58:45.419Z,45.65
2023-03-06T08:59:45.386Z,45.82
2023-03-06T09:00:45.457Z,45.93
2023-03-06T09:01:45.588Z,45.74
2023-03-06T09:02:45.405Z,45.66
2023-03-06T09:03:45.473Z,45.34
2023-03-06T09:04:45.396Z,45.24
2023-03-06T09:05:45.391Z,45.28
2023-03-06T09:06:45.732Z,45.08
2023-03-06T09:07:45.424Z,45.08
2023-03-06T09:08:45.443Z,45.18
2023-03-06T09:09:45.425Z,45.14
2023-03-06T09:10:45.469Z,45.07
2023-03-06T09:11:45.444Z,44.98
2023-03-06T09:13:45.445Z,45.10
2023-03-06T09:14:45.427Z,45.18
2023-03-06T09:15:45.438Z,45.31
2023-03-06T09:16:45.502Z,45.31
2023-03-06T09:17:45.504Z,45.31
2023-03-06T09:18:45.471Z,44.92
2023-03-06T09:19:45.579Z,44.95
2023-03-06T09:20:45.458Z,44.95
2023-03-06T09:21:45.485Z,45.00
2023-03-06T09:22:45.484Z,45.00
2023-03-06T09:23:45.437Z,44.76
2023-03-06T09:24:45.438Z,44.76
2023-03-06T09:25:45.467Z,44.69
2023-03-06T09:26:47.583Z,44.71
2023-03-06T09:27:45.467Z,44.71
2023-03-06T09:28:45.457Z,44.53
2023-03-06T09:29:46.653Z,44.47
2023-03-06T09:31:45.617Z,44.15
2023-03-06T09:32:45.478Z,43.91
2023-03-06T09:33:45.500Z,44.02
2023-03-06T09:34:45.507Z,44.17
2023-03-06T09:35:45.527Z,44.17
2023-03-06T09:36:56.568Z,44.11
2023-03-06T09:37:45.509Z,44.24
2023-03-06T09:38:45.478Z,44.14
2023-03-06T09:39:45.534Z,44.00
2023-03-06T09:40:45.481Z,44.00
2023-03-06T09:41:45.474Z,44.03
2023-03-06T09:42:45.520Z,43.80
2023-03-06T09:43:46.041Z,43.49
2023-03-06T09:44:45.506Z,43.49
2023-03-06T09:45:45.595Z,43.61
2023-03-06T09:46:45.559Z,43.67
2023-03-06T09:47:45.546Z,43.59
2023-03-06T09:48:45.505Z,43.59
2023-03-06T09:49:45.578Z,43.35
2023-03-06T09:50:45.517Z,43.33
2023-03-06T09:51:45.515Z,43.34
2023-03-06T09:52:45.535Z,43.34
2023-03-06T09:53:45.513Z,43.39
2023-03-06T09:54:45.523Z,43.35
2023-03-06T09:55:45.570Z,43.11
2023-03-06T09:56:45.550Z,42.82
2023-03-06T09:57:45.582Z,42.82
2023-03-06T09:58:45.530Z,42.68
2023-03-06T09:59:45.543Z,42.59
2023-03-06T10:00:45.541Z,42.57
2023-03-06T10:02:45.739Z,42.32
2023-03-06T10:03:45.550Z,42.26
2023-03-06T10:04:45.609Z,42.26
2023-03-06T10:05:45.573Z,42.37
2023-03-06T10:07:46.300Z,42.72
2023-03-06T10:08:45.591Z,42.62
2023-03-06T10:09:45.600Z,42.42
2023-03-06T10:10:45.625Z,42.32
2023-03-06T10:11:45.573Z,42.40
2023-03-06T10:12:45.605Z,42.11
2023-03-06T10:13:45.608Z,42.44
2023-03-06T10:14:48.744Z,42.58
2023-03-06T10:15:45.669Z,42.79
2023-03-06T10:16:45.613Z,42.79
2023-03-06T10:17:45.581Z,42.64
2023-03-06T10:18:45.584Z,42.44
2023-03-06T10:19:45.582Z,42.58
2023-03-06T10:20:46.350Z,42.16
2023-03-06T10:21:45.638Z,42.16
2023-03-06T10:22:55.385Z,42.07
2023-03-06T10:23:45.634Z,42.24
2023-03-06T10:24:45.638Z,42.00
2023-03-06T10:25:45.691Z,42.16
2023-03-06T10:26:45.773Z,42.16
2023-03-06T10:27:45.649Z,41.85
2023-03-06T10:28:45.612Z,41.86
2023-03-06T10:29:59.892Z,41.57
2023-03-06T10:30:45.757Z,41.29
2023-03-06T10:31:45.674Z,41.29
2023-03-06T10:32:49.099Z,41.30
2023-03-06T10:33:45.663Z,41.34
2023-03-06T10:34:45.652Z,41.32
2023-03-06T10:35:45.798Z,40.86
2023-03-06T10:36:45.673Z,40.86
2023-03-06T10:37:45.995Z,40.84
2023-03-06T10:38:45.679Z,40.49
2023-03-06T10:39:45.674Z,40.43
2023-03-06T10:40:45.671Z,40.36
2023-03-06T10:41:46.268Z,40.29
2023-03-06T10:42:45.673Z,40.29
2023-03-06T10:43:45.745Z,40.21
2023-03-06T10:44:45.690Z,40.21
2023-03-06T10:45:49.280Z,40.34
2023-03-06T10:46:45.714Z,40.40
2023-03-06T10:47:45.655Z,40.42
2023-03-06T10:48:45.698Z,40.49
2023-03-06T10:49:45.671Z,40.05
2023-03-06T10:51:45.698Z,40.17
2023-03-06T10:52:45.701Z,40.31
2023-03-06T10:53:45.715Z,40.77
2023-03-06T10:54:45.703Z,40.77
2023-03-06T10:55:45.703Z,40.50
2023-03-06T10:56:45.748Z,40.57
2023-03-06T10:57:46.583Z,40.67
2023-03-06T10:59:45.719Z,40.61
2023-03-06T11:00:45.687Z,40.70
2023-03-06T11:01:45.879Z,40.71
2023-03-06T11:02:45.738Z,40.71
2023-03-06T11:03:45.676Z,40.87
2023-03-06T11:04:45.770Z,40.70
2023-03-06T11:05:45.712Z,40.95
2023-03-06T11:06:45.796Z,40.86
2023-03-06T11:07:45.751Z,40.60
2023-03-06T11:08:45.703Z,40.69
2023-03-06T11:09:45.703Z,40.82
2023-03-06T11:10:45.717Z,40.80
2023-03-06T11:11:45.752Z,40.50
2023-03-06T11:12:45.751Z,40.90
2023-03-06T11:13:45.797Z,40.73
2023-03-06T11:14:45.791Z,40.55
2023-03-06T11:15:45.815Z,40.55
2023-03-06T11:16:45.770Z,40.60
2023-03-06T11:17:45.733Z,40.70
2023-03-06T11:18:47.136Z,40.63
2023-03-06T11:19:45.765Z,40.77
2023-03-06T11:20:52.159Z,40.77
2023-03-06T11:21:45.726Z,40.87
2023-03-06T11:22:48.116Z,40.25
2023-03-06T11:23:45.764Z,40.29
2023-03-06T11:24:45.803Z,40.23
2023-03-06T11:25:45.740Z,40.26
2023-03-06T11:26:45.744Z,40.19
2023-03-06T11:27:45.773Z,40.27
2023-03-06T11:28:45.777Z,40.59
2023-03-06T11:29:45.786Z,41.02
2023-03-06T11:30:45.762Z,41.20
2023-03-06T11:31:45.878Z,41.33
2023-03-06T11:32:45.760Z,41.33
2023-03-06T11:33:45.783Z,41.32
2023-03-06T11:34:49.168Z,40.98
2023-03-06T11:35:46.067Z,40.98
2023-03-06T11:36:45.778Z,40.68
2023-03-06T11:37:45.821Z,40.79
2023-03-06T11:38:45.784Z,40.79
2023-03-06T11:39:45.772Z,40.69
2023-03-06T11:40:45.768Z,40.52
2023-03-06T11:41:46.609Z,40.50
2023-03-06T11:42:45.813Z,39.93
2023-03-06T11:43:45.821Z,39.93
2023-03-06T11:44:45.823Z,40.01
2023-03-06T11:45:45.803Z,39.88
2023-03-06T11:46:45.817Z,40.22
2023-03-06T11:47:45.901Z,40.06
2023-03-06T11:48:45.782Z,40.06
2023-03-06T11:49:45.835Z,39.77
2023-03-06T11:51:45.840Z,39.80
2023-03-06T11:52:45.837Z,39.56
2023-03-06T11:53:46.064Z,39.56
2023-03-06T11:54:45.850Z,40.15
2023-03-06T11:55:45.872Z,40.15
2023-03-06T11:56:45.863Z,39.60
2023-03-06T11:57:45.832Z,39.60
2023-03-06T11:58:45.860Z,39.50
2023-03-06T11:59:45.848Z,39.54
2023-03-06T12:00:45.901Z,39.39
2023-03-06T12:01:45.944Z,39.44
2023-03-06T12:02:45.864Z,39.12
2023-03-06T12:03:45.871Z,39.51
2023-03-06T12:04:45.882Z,39.46
2023-03-06T12:05:45.960Z,39.43
2023-03-06T12:06:45.848Z,39.81
2023-03-06T12:07:45.841Z,39.64
2023-03-06T12:09:45.882Z,39.22
2023-03-06T12:10:51.461Z,39.22
2023-03-06T12:11:47.239Z,39.62
2023-03-06T12:12:45.843Z,39.62
2023-03-06T12:13:45.865Z,39.38
2023-03-06T12:14:45.900Z,39.37
2023-03-06T12:15:45.897Z,39.22
2023-03-06T12:17:45.922Z,39.01
2023-03-06T12:18:45.965Z,39.13
2023-03-06T12:19:45.916Z,39.13
2023-03-06T12:20:45.873Z,39.05
2023-03-06T12:21:45.862Z,39.17
2023-03-06T12:22:57.412Z,39.25
2023-03-06T12:24:45.870Z,39.01
2023-03-06T12:26:45.919Z,38.92
2023-03-06T12:28:46.545Z,39.13
2023-03-06T12:29:45.929Z,38.96
2023-03-06T12:30:45.936Z,38.65
2023-03-06T12:31:45.983Z,38.39
2023-03-06T12:32:45.965Z,38.61
2023-03-06T12:33:45.914Z,38.45
2023-03-06T12:34:46.009Z,38.58
2023-03-06T12:35:45.991Z,38.45
2023-03-06T12:36:45.944Z,38.68
2023-03-06T12:37:45.942Z,38.75
2023-03-06T12:38:45.972Z,38.54
2023-03-06T12:39:45.913Z,38.61
2023-03-06T12:40:45.947Z,38.53
2023-03-06T12:41:45.955Z,38.81
2023-03-06T12:42:45.980Z,38.81
2023-03-06T12:43:45.983Z,38.83
2023-03-06T12:44:45.969Z,38.75
2023-03-06T12:45:46.103Z,38.79
2023-03-06T12:46:45.969Z,38.70
2023-03-06T12:47:45.975Z,38.84
2023-03-06T12:48:47.352Z,39.03
2023-03-06T12:49:47.494Z,39.03
2023-03-06T12:50:46.121Z,38.83
2023-03-06T12:51:46.036Z,38.91
2023-03-06T12:52:45.996Z,38.91
2023-03-06T12:53:45.976Z,38.74
2023-03-06T12:54:45.967Z,38.74
2023-03-06T12:55:45.973Z,38.82
2023-03-06T12:56:46.104Z,38.75
2023-03-06T12:58:45.956Z,38.83
2023-03-06T12:59:45.968Z,38.94
2023-03-06T13:00:47.865Z,38.80
2023-03-06T13:01:46.079Z,39.07
2023-03-06T13:02:46.223Z,39.07
2023-03-06T13:03:46.047Z,38.95
2023-03-06T13:04:45.985Z,38.84
2023-03-06T13:06:50.910Z,39.08
2023-03-06T13:07:46.040Z,39.32
2023-03-06T13:09:46.084Z,38.87
2023-03-06T13:10:46.044Z,38.88
2023-03-06T13:11:46.037Z,38.68
2023-03-06T13:12:46.009Z,38.58
2023-03-06T13:13:46.004Z,38.68
2023-03-06T13:14:54.239Z,38.78
2023-03-06T13:15:46.484Z,38.75
2023-03-06T13:16:46.110Z,38.71
2023-03-06T13:17:46.111Z,38.71
2023-03-06T13:18:46.019Z,38.47
2023-03-06T13:19:46.058Z,38.26
2023-03-06T13:20:46.046Z,38.34
2023-03-06T13:21:46.191Z,38.31
2023-03-06T13:22:46.066Z,38.19
2023-03-06T13:23:46.031Z,38.28
2023-03-06T13:24:46.052Z,38.10
2023-03-06T13:25:47.609Z,38.03
2023-03-06T13:26:46.057Z,38.03
2023-03-06T13:27:46.356Z,37.95
2023-03-06T13:28:46.065Z,38.40
2023-03-06T13:29:46.050Z,38.29
2023-03-06T13:30:46.121Z,37.51
2023-03-06T13:31:46.136Z,38.03
2023-03-06T13:32:46.068Z,38.03
2023-03-06T13:33:46.074Z,38.12
2023-03-06T13:35:46.089Z,37.75
2023-03-06T13:36:46.133Z,37.70
2023-03-06T13:37:46.097Z,37.70
2023-03-06T13:38:46.096Z,37.82
2023-03-06T13:39:46.439Z,37.84
2023-03-06T13:40:46.105Z,37.87
2023-03-06T13:41:46.165Z,38.09
2023-03-06T13:42:46.110Z,38.09
2023-03-06T13:43:46.123Z,38.23
2023-03-06T13:44:46.134Z,38.01
2023-03-06T13:45:46.141Z,38.01
2023-03-06T13:46:46.138Z,38.02
2023-03-06T13:48:09.662Z,38.01
2023-03-06T13:48:46.334Z,37.92
2023-03-06T13:49:46.126Z,37.71
2023-03-06T13:50:46.121Z,38.04
2023-03-06T13:51:46.178Z,37.79
2023-03-06T13:52:46.144Z,37.76
2023-03-06T13:53:46.191Z,37.75
2023-03-06T13:56:46.142Z,37.45
2023-03-06T13:57:46.388Z,37.58
2023-03-06T13:59:46.175Z,37.55
2023-03-06T14:00:46.147Z,37.55
2023-03-06T14:01:46.162Z,37.58
2023-03-06T14:02:49.170Z,37.67
2023-03-06T14:03:46.146Z,37.67
2023-03-06T14:04:46.158Z,37.35
2023-03-06T14:05:46.154Z,37.72
2023-03-06T14:06:46.171Z,37.46
2023-03-06T14:07:46.215Z,37.37
2023-03-06T14:08:46.220Z,37.37
2023-03-06T14:09:46.134Z,37.24
2023-03-06T14:10:46.194Z,37.24
2023-03-06T14:12:46.217Z,37.86
2023-03-06T14:13:47.687Z,37.86
2023-03-06T14:14:46.518Z,37.69
2023-03-06T14:15:46.190Z,38.09
2023-03-06T14:16:50.283Z,37.47
2023-03-06T14:17:46.212Z,37.36
2023-03-06T14:18:46.210Z,37.13
2023-03-06T14:19:46.156Z,37.13
2023-03-06T14:20:46.323Z,37.19
2023-03-06T14:21:46.209Z,37.38
2023-03-06T14:22:46.244Z,36.91
2023-03-06T14:23:46.159Z,36.86
2023-03-06T14:24:46.178Z,37.07
2023-03-06T14:25:46.238Z,36.68
2023-03-06T14:26:46.210Z,36.55
2023-03-06T14:27:46.257Z,36.41
2023-03-06T14:28:46.210Z,36.41
2023-03-06T14:29:46.227Z,36.34
2023-03-06T14:30:46.186Z,36.47
2023-03-06T14:31:46.420Z,36.39
2023-03-06T14:32:46.219Z,36.61
2023-03-06T14:33:46.226Z,36.61
2023-03-06T14:34:46.260Z,36.60